LTAC Airport Information

Runway Information
Runway 03L Length 12303 ft width 148 ft
Elevation 3100 ft Threshold 1148 ft Heading 36
Runway 21R Length 12303 ft Width 148 ft
Elevation 3123 ft Threshold 0 ft Heading 216
Runway 03R Length 12303 ft width 197 ft
Elevation 3097 ft Threshold 0 ft Heading 35
Runway 21L Length 12303 ft Width 197 ft
Elevation 3125 ft Threshold 0 ft Heading 215
Airport Frequencies
Type APP Name APP Frequency 119.1 MHZ
Type ATIS Name ATIS Frequency 123.6 MHZ
Type GND Name GND Frequency 121.9 MHZ
Type TWR Name TWR Frequency 118.1 MHZ
Airport Navaids
Type VOR-DME Name Cubuk Frequency 114300 KHZ
Airport Weather Information & NOTAM
ADDS - METARS form results

(0048 UTC 16 September 2019)
Data provider http://aviationweather.gov/metar/data/
 
METAR text: LTAC 160020Z 01003KT CAVOK 12/05 Q1020 NOSIG RMK RWY21L 32002KT RWY03L 36003KT RWY21R VRB02KT
Conditions at: LTAC (ANKARA/ESENBOGA , TR) observed 0020 UTC 16 September 2019
Temperature: 12.0°C (54°F)
Dewpoint: 5.0°C (41°F) [RH = 62%]
Pressure (altimeter): 30.12 inches Hg (1020.0 mb)
Winds: from the N (10 degrees) at 3 MPH (3 knots; 1.5 m/s)
Visibility: 6 or more miles (10+ km)
Ceiling: ceiling and visibility are OK
Clouds: unknown
Weather: no significant weather observed at this time

METAR text: LTAC 152350Z VRB01KT CAVOK 12/06 Q1020 NOSIG RMK RWY21L 16003KT 120V180 RWY03L VRB02KT RWY21R 00000KT
Conditions at: LTAC (ANKARA/ESENBOGA , TR) observed 2350 UTC 15 September 2019
Temperature: 12.0°C (54°F)
Dewpoint: 6.0°C (43°F) [RH = 67%]
Pressure (altimeter): 30.12 inches Hg (1020.0 mb)
Winds: variable direction winds at 1 MPH (1 knots; 0.5 m/s)
Visibility: 6 or more miles (10+ km)
Ceiling: ceiling and visibility are OK
Clouds: unknown
Weather: no significant weather observed at this time

Forecast for: LTAC (ANKARA/ESENBOGA , TR)
Text: TAF LTAC 152240Z 1600/1624 VRB02KT CAVOK
Forecast period: 0000 to 0500 UTC 16 September 2019
Forecast type: FROM: standard forecast or significant change
Winds: variable direction winds at 2 MPH (2 knots; 1.0 m/s)
Visibility: 6 or more miles 10+ km)
Ceiling: unknown
Clouds: missing
Weather: NSW  (no significant weather)
Text: BECMG 1605/1607 SCT040
Forecast period: 0500 UTC 16 September 2019 to 0000 UTC 17 September 2019
Forecast type: BECOMING: Conditions expected to become as follows by 0700 UTC 16 September 2019
Winds: variable direction winds at 2 MPH (2 knots; 1.0 m/s)
Visibility: 6 or more miles 10+ km)
Ceiling: at least 12,000 feet AGL
Clouds: scattered clouds at 4000 feet AGL
Weather: NSW  (no significant weather)